Scotland Neck, NC (27874)

8:25 AM EDT on July 30, 2014 (GMT -0400)
Tarboro-edgecombe (KETC) Elev 52 ft | 35.94 °N, 77.55 °W | Change Station

Current weather conditions updated 10 minutes ago

Scattered Clouds
Scattered Clouds
65 °F
Feels Like 65 °F
N
0
Wind Variable Wind from North

Today is forecast to be Much Cooler than yesterday.

Today
High -- | Low -- °F
--% Chance of Precip.
Yesterday
High -- | Low -- °F
Precip. -- in
6:15 AM 8:16 PM
Waxing Crescent, 11% visible
Pressure 30.08 in
Visibility 10.0 miles
Clouds Scattered Clouds 7000 ft
Scattered Clouds 10000 ft
Dew Point 61 °F
Humidity 87%
Rainfall 0.00 in
Snow Depth Not available.
UV 1 out of 12
Pollen 3.90 out of 12
Air Quality Not available.
Flu Activity Not available.
METAR KETC 301215Z AUTO 00000KT 10SM SCT070 SCT100 18/16 A3008 RMK AO2 T01840162

More Conditions Fewer Conditions

Pressure 30.08 in
Visibility 10.0 miles
Clouds Scattered Clouds 7000 ft
Scattered Clouds 10000 ft
Dew Point 61 °F
Humidity 87%
Rainfall 0.00 in
Snow Depth Not available.
UV 1 out of 12
Pollen 3.90 out of 12
Air Quality Not available.
Flu Activity Not available.
METAR KETC 301215Z AUTO 00000KT 10SM SCT070 SCT100 18/16 A3008 RMK AO2 T01840162

More Conditions Fewer Conditions

10-Day Weather Forecast

Almanac

Astronomy

Jul. 30, 2014 Rise Set
Actual Time 6:15 AM EDT 8:16 PM EDT
Civil Twilight 5:46 AM EDT 8:44 PM EDT
Nautical Twilight 5:12 AM EDT 9:19 PM EDT
Astronomical Twilight 4:34 AM EDT 9:56 PM EDT
Moon 9:37 AM EDT 10:06 PM EDT
Length of Visible Light 14h 58m
Length of Day
14h 01m
Tomorrow will be 1m 40s shorter.
Waxing Crescent, 11% of the Moon is Illuminated
Today
Waxing Crescent
Aug 3
First Quarter
Aug 10
Full
Aug 17
Last Quarter
Aug 25
New

Today's Extremes

State Highs State Lows

Community

WunderPhotos

Upload Photos

1,739,054 photos uploaded!

Nearby

Snow Depth

Station Depth Elevation
No new snow has been reported.

Earthquake Activity

City Distance Mag. Time & Date
No recent earthquake activity has been reported nearby.
Minimum magnitude displayed is 2.5.

Coastal Water Temperatures

Place Temperature
No Stations Reporting

Nearby Weather Stations

Station Location Temp. Dew Point Humidity Wind Precip. Elev Updated Type
Edgecombe-Martin County EMC, Tarboro, NC 66.5 °F 62 °F 87% NNE  at  4.0 mph 0.00 in / hr 76 ft 8:25 AM EDT Rapid Fire
Ashley's Grove, Conway, NC 65.5 °F 60 °F 83% North  at  0.0 mph 0.00 in / hr 65 ft 8:25 AM EDT Rapid Fire
Conway - 35S, Conway, NC 64.0 °F 57 °F 79% NNW  at  1.0 mph 0.00 in / hr 105 ft 8:25 AM EDT Normal

Show More Stations Show Fewer Stations